Time;durP1;ratioP1;P1;durP2;ratioP2;P2;SDS_P1;SDS_P2;PMS_P1;PMS_P2;Temp;Humidity;BMP_temperature;BMP_pressure;BME280_temperature;BME280_humidity;BME280_pressure;Samples;Min_cycle;Max_cycle;Signal;HPM_P1;HPM_P2
2022/10/08 00:01:27;;;;;;;12.17;11.00;;;;;;;14.00;80.81;95951.56;4994463;28;20195;-83
2022/10/08 00:03:55;;;;;;;12.83;11.63;;;;;;;13.95;80.93;95953.09;4994708;28;20200;-81
2022/10/08 00:06:24;;;;;;;12.53;11.33;;;;;;;13.97;81.11;95957.09;4995468;28;20203;-81
2022/10/08 00:08:53;;;;;;;11.10;10.10;;;;;;;13.98;80.90;95944.94;4989229;28;20242;-81
2022/10/08 00:11:21;;;;;;;12.53;11.33;;;;;;;13.89;81.20;95946.88;4994355;28;20303;-81
2022/10/08 00:13:49;;;;;;;11.75;10.55;;;;;;;13.86;81.42;95951.63;4988719;28;20219;-81
2022/10/08 00:16:19;;;;;;;11.43;10.33;;;;;;;13.92;80.93;95948.28;4992770;28;20203;-81
2022/10/08 00:18:48;;;;;;;11.63;10.57;;;;;;;13.89;80.89;95954.63;4995385;28;20226;-81
2022/10/08 00:21:18;;;;;;;11.47;10.43;;;;;;;13.92;80.89;95946.50;4995114;28;20199;-81
2022/10/08 00:23:49;;;;;;;11.87;10.77;;;;;;;13.89;80.69;95944.28;4994437;28;20594;-81
2022/10/08 00:26:17;;;;;;;11.97;10.90;;;;;;;13.87;80.60;95954.03;4994566;28;20711;-81
2022/10/08 00:28:45;;;;;;;11.70;10.60;;;;;;;13.86;80.45;95949.03;4994640;28;20589;-81
2022/10/08 00:31:15;;;;;;;11.80;10.70;;;;;;;13.91;80.51;95947.47;4994229;28;20203;-81
2022/10/08 00:33:41;;;;;;;11.63;10.57;;;;;;;13.81;80.82;95950.41;4993281;28;20212;-81
2022/10/08 00:36:12;;;;;;;12.23;11.03;;;;;;;13.85;81.17;95939.69;4993991;28;20210;-81
2022/10/08 00:38:39;;;;;;;12.23;11.00;;;;;;;13.88;80.68;95945.28;4993472;28;20218;-81
2022/10/08 00:41:08;;;;;;;12.13;11.03;;;;;;;13.85;80.64;95948.25;4993497;28;20388;-81
2022/10/08 00:43:42;;;;;;;11.63;10.53;;;;;;;13.81;81.06;95934.88;4993461;28;20192;-81
2022/10/08 00:46:24;;;;;;;11.13;10.03;;;;;;;13.84;81.11;95941.47;4993792;28;20302;-81
2022/10/08 00:48:52;;;;;;;11.80;10.60;;;;;;;13.83;80.80;95937.28;4987908;28;20247;-81
2022/10/08 00:51:21;;;;;;;11.43;10.33;;;;;;;13.89;80.86;95927.94;4993151;28;20196;-81
2022/10/08 00:53:47;;;;;;;11.38;9.80;;;;;;;13.89;80.59;95925.34;4993896;28;20223;-81
2022/10/08 00:56:14;;;;;;;10.88;9.88;;;;;;;13.86;81.29;95929.13;4992130;28;20199;-81
2022/10/08 00:58:43;;;;;;;11.25;10.25;;;;;;;13.82;81.76;95930.50;4993082;28;20223;-81
2022/10/08 01:01:10;;;;;;;11.35;10.35;;;;;;;13.77;82.03;95928.47;4992874;28;20206;-81
2022/10/08 01:03:36;;;;;;;12.00;10.90;;;;;;;13.72;82.29;95920.47;4993099;28;20192;-81
2022/10/08 01:06:12;;;;;;;12.80;10.43;;;;;;;13.75;82.69;95919.28;4993479;28;20211;-81
2022/10/08 01:08:47;;;;;;;11.17;10.03;;;;;;;13.86;82.01;95918.78;4993551;28;20735;-81
2022/10/08 01:11:26;;;;;;;11.87;10.67;;;;;;;13.83;82.32;95916.59;4993313;28;20199;-81
2022/10/08 01:14:01;;;;;;;11.90;10.80;;;;;;;13.92;81.87;95918.03;4987308;28;20717;-81
2022/10/08 01:16:35;;;;;;;11.10;10.00;;;;;;;13.89;81.80;95913.22;4993185;28;20207;-81
2022/10/08 01:19:13;;;;;;;11.33;10.33;;;;;;;13.85;82.58;95912.03;4988794;28;20227;-81
2022/10/08 01:21:46;;;;;;;11.33;10.33;;;;;;;13.90;82.40;95909.66;4992597;28;20210;-81
2022/10/08 01:25:31;;;;;;;11.70;10.60;;;;;;;13.92;82.56;95905.09;4993721;28;20200;-81
2022/10/08 01:27:27;;;;;;;10.50;9.57;;;;;;;13.93;82.37;95908.47;4992410;28;20798;-81
2022/10/08 01:29:55;;;;;;;11.73;10.63;;;;;;;13.95;81.92;95909.09;4987171;28;20206;-81
2022/10/08 01:32:28;;;;;;;11.20;10.10;;;;;;;13.94;82.23;95902.31;4992963;28;20232;-82
2022/10/08 01:35:01;;;;;;;11.73;10.53;;;;;;;13.96;82.57;95900.34;4987315;28;20220;-81
2022/10/08 01:37:32;;;;;;;11.60;10.40;;;;;;;13.94;82.82;95904.91;4992893;28;20203;-81
2022/10/08 01:40:02;;;;;;;10.90;9.87;;;;;;;13.92;82.30;95899.09;4987333;28;20222;-81
2022/10/08 01:42:34;;;;;;;10.83;9.73;;;;;;;13.84;81.98;95900.06;4992382;28;20621;-81
2022/10/08 01:45:03;;;;;;;10.30;9.27;;;;;;;13.79;82.41;95900.63;4992323;28;20619;-81
2022/10/08 01:47:30;;;;;;;11.10;10.00;;;;;;;13.84;82.29;95900.06;4992059;28;20679;-81
2022/10/08 01:50:02;;;;;;;10.87;9.87;;;;;;;13.86;81.93;95905.81;4992447;28;20192;-80
2022/10/08 01:52:33;;;;;;;11.17;10.17;;;;;;;13.85;81.93;95898.28;4992386;28;20230;-80
2022/10/08 01:55:03;;;;;;;11.77;10.57;;;;;;;13.75;81.73;95896.00;4991917;28;20223;-80
2022/10/08 01:57:33;;;;;;;11.13;10.07;;;;;;;13.78;81.59;95895.63;4992465;28;20192;-80
2022/10/08 02:00:05;;;;;;;10.63;9.73;;;;;;;13.77;81.63;95897.41;4992470;28;20320;-81
2022/10/08 02:02:32;;;;;;;10.13;9.27;;;;;;;13.78;81.67;95895.63;4992006;28;20203;-80
2022/10/08 02:04:58;;;;;;;10.03;9.03;;;;;;;13.79;81.44;95894.66;4992290;28;20191;-81
2022/10/08 02:07:27;;;;;;;11.30;10.20;;;;;;;13.76;81.61;95890.66;4991367;28;20195;-80
2022/10/08 02:10:06;;;;;;;10.03;9.13;;;;;;;13.76;81.74;95895.81;4992435;28;20610;-80
2022/10/08 02:12:35;;;;;;;10.97;9.87;;;;;;;13.76;81.64;95888.06;4992441;28;20206;-81
2022/10/08 02:15:04;;;;;;;9.67;8.60;;;;;;;13.82;82.19;95889.09;4992393;28;20226;-81
2022/10/08 02:17:37;;;;;;;9.90;9.00;;;;;;;13.88;82.04;95888.31;4992233;28;20349;-81
2022/10/08 02:20:10;;;;;;;9.70;8.70;;;;;;;13.94;81.50;95884.19;4986949;28;20192;-81
2022/10/08 02:22:41;;;;;;;9.43;8.53;;;;;;;13.89;81.87;95876.19;4992555;28;20254;-81
2022/10/08 02:25:13;;;;;;;9.33;8.43;;;;;;;13.90;82.26;95883.75;4992975;28;20675;-81
2022/10/08 02:27:51;;;;;;;9.57;8.57;;;;;;;13.94;83.78;95879.81;4992789;28;20227;-81
2022/10/08 02:30:17;;;;;;;9.20;8.40;;;;;;;13.98;83.47;95886.22;4992564;28;20937;-81
2022/10/08 02:32:50;;;;;;;8.40;7.70;;;;;;;14.05;84.13;95881.84;4992221;28;20195;-81
2022/10/08 02:35:25;;;;;;;8.07;7.27;;;;;;;14.09;84.60;95885.66;4992689;28;20215;-81
2022/10/08 02:37:59;;;;;;;7.82;7.15;;;;;;;14.14;85.08;95879.94;4992531;28;20630;-81
2022/10/08 02:40:29;;;;;;;7.90;7.10;;;;;;;14.22;84.53;95881.56;4992275;28;20199;-81
2022/10/08 02:43:02;;;;;;;7.60;6.93;;;;;;;14.22;85.33;95878.97;4992310;28;20191;-81
2022/10/08 02:45:34;;;;;;;7.13;6.53;;;;;;;14.30;85.11;95884.78;4991661;28;20203;-81
2022/10/08 02:48:07;;;;;;;7.40;6.55;;;;;;;14.32;85.69;95885.41;4986151;28;20254;-81
2022/10/08 02:50:36;;;;;;;13.38;11.35;;;;;;;14.33;85.88;95883.59;4991277;28;20206;-81
2022/10/08 02:53:03;;;;;;;14.88;13.38;;;;;;;14.37;85.75;95887.41;4991623;28;20280;-81
2022/10/08 02:55:42;;;;;;;8.93;7.77;;;;;;;14.36;86.32;95885.81;4990784;28;20207;-81
2022/10/08 02:58:12;;;;;;;6.72;5.80;;;;;;;14.42;85.96;95890.28;4987669;28;20215;-81
2022/10/08 03:00:42;;;;;;;6.25;5.57;;;;;;;14.45;85.74;95888.06;4990945;28;20199;-81
2022/10/08 03:03:13;;;;;;;6.20;5.65;;;;;;;14.50;85.63;95888.28;4991752;28;20203;-81
2022/10/08 03:05:41;;;;;;;5.68;5.20;;;;;;;14.55;85.41;95890.31;4991457;28;20203;-81
2022/10/08 03:08:12;;;;;;;6.45;5.80;;;;;;;14.58;85.07;95887.34;4991746;28;20211;-81
2022/10/08 03:10:40;;;;;;;5.97;5.45;;;;;;;14.54;85.51;95887.91;4991464;28;20206;-80
2022/10/08 03:13:07;;;;;;;5.90;5.35;;;;;;;14.58;85.36;95876.19;4992039;28;20199;-81
2022/10/08 03:15:36;;;;;;;6.00;5.40;;;;;;;14.57;85.73;95877.16;4991266;28;20318;-81
2022/10/08 03:18:07;;;;;;;5.22;4.72;;;;;;;14.61;85.63;95880.97;4991934;28;20598;-81
2022/10/08 03:20:39;;;;;;;5.85;5.38;;;;;;;14.64;85.48;95881.38;4991164;28;20679;-80
2022/10/08 03:23:06;;;;;;;8.65;5.38;;;;;;;14.65;85.35;95882.16;4986822;28;20203;-81
2022/10/08 03:25:32;;;;;;;5.55;5.10;;;;;;;14.67;85.42;95880.19;4991471;28;20191;-81
2022/10/08 03:27:59;;;;;;;8.52;5.65;;;;;;;14.71;85.26;95882.19;4985634;28;20222;-81
2022/10/08 03:30:25;;;;;;;6.05;5.45;;;;;;;14.73;84.93;95882.00;4991872;28;20199;-81
2022/10/08 03:32:53;;;;;;;6.28;5.53;;;;;;;14.73;85.02;95882.81;4991889;28;20226;-81
2022/10/08 03:35:19;;;;;;;9.25;5.47;;;;;;;14.74;85.03;95881.81;4991309;28;20216;-81
2022/10/08 03:37:46;;;;;;;5.43;4.93;;;;;;;14.76;84.49;95884.22;4991649;28;20220;-81
2022/10/08 03:40:12;;;;;;;7.05;5.30;;;;;;;14.79;84.11;95889.00;4991715;28;20202;-81
2022/10/08 03:42:39;;;;;;;6.85;4.95;;;;;;;14.81;84.05;95887.03;4990310;28;20196;-81
2022/10/08 03:45:06;;;;;;;5.47;5.07;;;;;;;14.81;84.02;95882.63;4991617;28;20195;-80
2022/10/08 03:47:32;;;;;;;5.72;5.22;;;;;;;14.82;84.02;95884.22;4992442;28;20227;-80
2022/10/08 03:50:00;;;;;;;5.35;4.93;;;;;;;14.82;84.28;95878.22;4991032;28;20683;-80
2022/10/08 03:52:27;;;;;;;5.53;4.68;;;;;;;14.87;84.09;95888.81;4990708;28;20679;-80
2022/10/08 03:54:53;;;;;;;7.07;5.18;;;;;;;14.87;84.70;95886.22;4990383;28;20227;-80
2022/10/08 03:57:19;;;;;;;5.40;4.65;;;;;;;14.89;84.47;95884.25;4991078;28;20726;-81
2022/10/08 03:59:46;;;;;;;4.80;4.40;;;;;;;14.88;84.62;95890.41;4990834;28;20207;-80
2022/10/08 04:02:12;;;;;;;5.38;4.97;;;;;;;14.90;85.22;95891.03;4990256;28;20203;-80
2022/10/08 04:04:39;;;;;;;5.30;4.75;;;;;;;14.94;84.61;95887.06;4990433;28;20192;-81
2022/10/08 04:07:07;;;;;;;4.65;4.25;;;;;;;14.98;84.52;95890.06;4990521;28;20199;-81
2022/10/08 04:09:33;;;;;;;4.78;4.38;;;;;;;15.01;84.39;95885.25;4990268;28;20222;-81
2022/10/08 04:12:00;;;;;;;5.28;4.88;;;;;;;15.02;84.52;95888.66;4990096;28;20711;-81
2022/10/08 04:14:26;;;;;;;5.53;4.68;;;;;;;15.04;84.39;95884.06;4990277;28;20708;-81
2022/10/08 04:16:54;;;;;;;5.35;4.82;;;;;;;15.07;84.50;95886.28;4988629;28;20196;-81
2022/10/08 04:19:20;;;;;;;5.40;4.90;;;;;;;15.09;84.55;95885.09;4993772;28;20215;-81
2022/10/08 04:21:46;;;;;;;5.30;4.90;;;;;;;15.11;84.44;95885.69;4993280;28;20203;-82
2022/10/08 04:24:14;;;;;;;5.15;4.75;;;;;;;15.12;84.64;95886.50;4994174;28;20191;-81
2022/10/08 04:26:41;;;;;;;5.70;5.20;;;;;;;15.07;85.07;95888.88;4993837;28;20200;-81
2022/10/08 04:29:07;;;;;;;5.35;4.78;;;;;;;15.10;84.83;95881.50;4994062;28;20219;-81
2022/10/08 04:31:34;;;;;;;6.43;5.00;;;;;;;15.09;85.62;95884.28;4993219;28;20273;-81
2022/10/08 04:34:00;;;;;;;6.45;4.82;;;;;;;15.11;85.35;95880.50;4994536;28;20710;-81
2022/10/08 04:36:27;;;;;;;5.20;4.53;;;;;;;15.15;85.16;95881.72;4994199;28;20654;-81
2022/10/08 04:38:53;;;;;;;5.47;4.97;;;;;;;15.18;85.30;95889.09;4993903;28;20734;-81
2022/10/08 04:41:23;;;;;;;5.70;5.13;;;;;;;15.19;85.25;95888.09;4994363;28;20210;-81
2022/10/08 04:43:49;;;;;;;6.22;4.90;;;;;;;15.24;85.22;95889.28;4994059;28;20258;-81
2022/10/08 04:46:18;;;;;;;5.82;5.00;;;;;;;15.25;85.64;95893.47;4994397;28;20203;-80
2022/10/08 04:48:47;;;;;;;5.60;4.95;;;;;;;15.27;85.82;95887.09;4993158;28;20307;-81
2022/10/08 04:51:14;;;;;;;5.50;5.00;;;;;;;15.26;85.56;95890.69;4993990;28;20196;-81
2022/10/08 04:53:40;;;;;;;6.63;5.18;;;;;;;15.26;86.02;95895.09;4994258;28;20199;-81
2022/10/08 04:56:09;;;;;;;5.15;4.65;;;;;;;15.28;85.64;95901.69;4993312;28;20207;-81
2022/10/08 04:58:37;;;;;;;5.13;4.72;;;;;;;15.25;86.25;95891.69;4993438;28;20847;-81
2022/10/08 05:01:04;;;;;;;5.25;4.72;;;;;;;15.28;85.89;95899.06;4994377;28;20202;-81
2022/10/08 05:03:30;;;;;;;6.97;4.78;;;;;;;15.30;86.00;95904.06;4993045;28;20203;-81
2022/10/08 05:05:57;;;;;;;5.70;5.30;;;;;;;15.32;85.83;95891.69;4993787;28;20854;-81
2022/10/08 05:08:23;;;;;;;6.57;5.07;;;;;;;15.32;86.04;95902.09;4992862;28;20646;-82
2022/10/08 05:10:50;;;;;;;6.57;4.80;;;;;;;15.34;86.07;95902.69;4992308;28;20214;-81
2022/10/08 05:13:16;;;;;;;6.03;4.72;;;;;;;15.33;85.89;95903.69;4994812;28;20913;-81
2022/10/08 05:15:44;;;;;;;4.85;4.45;;;;;;;15.34;85.96;95902.69;4994714;28;20216;-82
2022/10/08 05:18:11;;;;;;;5.10;4.60;;;;;;;15.33;86.14;95906.28;4994827;28;20223;-81
2022/10/08 05:20:37;;;;;;;5.53;4.63;;;;;;;15.31;86.18;95908.25;4994537;28;20218;-81
2022/10/08 05:23:04;;;;;;;5.78;4.63;;;;;;;15.34;85.71;95906.09;4993579;28;20192;-82
2022/10/08 05:25:31;;;;;;;5.00;4.60;;;;;;;15.36;85.61;95906.69;4986921;28;20561;-81
2022/10/08 05:27:58;;;;;;;7.22;4.75;;;;;;;15.40;85.68;95912.25;4987973;28;20211;-80
2022/10/08 05:30:24;;;;;;;5.85;5.15;;;;;;;15.37;85.51;95918.66;4984671;28;20197;-82
2022/10/08 05:32:52;;;;;;;5.07;4.57;;;;;;;15.42;85.45;95921.44;4988846;28;20220;-80
2022/10/08 05:35:19;;;;;;;7.97;4.80;;;;;;;15.44;85.17;95914.25;4986259;28;20940;-81
2022/10/08 05:37:45;;;;;;;5.00;4.60;;;;;;;15.40;85.61;95918.25;4988283;28;20220;-80
2022/10/08 05:40:12;;;;;;;5.15;4.57;;;;;;;15.42;85.75;95924.03;4988782;28;20196;-81
2022/10/08 05:42:38;;;;;;;4.75;4.35;;;;;;;15.41;85.66;95919.03;4994372;28;20693;-81
2022/10/08 05:45:06;;;;;;;7.75;4.70;;;;;;;15.44;85.53;95916.06;4996699;28;20204;-81
2022/10/08 05:47:32;;;;;;;6.22;5.60;;;;;;;15.45;85.46;95920.25;4997253;28;20211;-81
2022/10/08 05:50:00;;;;;;;7.03;5.25;;;;;;;15.44;85.52;95926.44;4993622;28;20202;-82
2022/10/08 05:52:26;;;;;;;5.43;4.93;;;;;;;15.45;85.33;95917.66;4995523;28;20200;-81
2022/10/08 05:54:53;;;;;;;5.10;4.60;;;;;;;15.45;85.48;95920.25;4992478;28;20237;-81
2022/10/08 05:57:19;;;;;;;6.15;5.00;;;;;;;15.44;85.25;95923.84;4993738;28;20202;-82
2022/10/08 05:59:46;;;;;;;5.32;4.85;;;;;;;15.44;85.36;95929.84;4995350;28;20203;-82
2022/10/08 06:02:12;;;;;;;5.78;4.90;;;;;;;15.44;85.35;95926.44;4995434;28;20195;-82
2022/10/08 06:04:39;;;;;;;6.85;4.68;;;;;;;15.46;85.26;95927.84;4994872;28;20846;-81
2022/10/08 06:07:06;;;;;;;6.20;4.85;;;;;;;15.46;85.00;95930.44;4995278;28;20204;-81
2022/10/08 06:09:33;;;;;;;6.15;5.18;;;;;;;15.48;85.02;95933.63;4994854;28;20223;-81
2022/10/08 06:11:59;;;;;;;6.10;4.78;;;;;;;15.51;84.88;95937.63;4994030;28;20214;-82
2022/10/08 06:14:26;;;;;;;7.90;4.68;;;;;;;15.52;85.04;95944.44;4995068;28;20204;-80
2022/10/08 06:16:53;;;;;;;10.70;5.85;;;;;;;15.61;84.74;95940.66;4995348;28;20591;-80
2022/10/08 06:19:19;;;;;;;6.13;5.07;;;;;;;15.68;84.49;95951.06;4992318;28;20211;-80
2022/10/08 06:21:46;;;;;;;6.25;4.80;;;;;;;15.69;84.33;95945.66;4994261;28;20215;-80
2022/10/08 06:24:14;;;;;;;5.43;4.93;;;;;;;15.77;83.95;95949.88;4994831;28;20202;-80
2022/10/08 06:26:43;;;;;;;6.45;5.53;;;;;;;15.80;83.77;95949.44;4995055;28;20196;-80
2022/10/08 06:29:15;;;;;;;5.47;4.70;;;;;;;15.84;83.56;95956.66;4988618;28;20219;-80
2022/10/08 06:31:41;;;;;;;5.80;5.20;;;;;;;16.04;83.44;95959.25;4994096;28;20227;-80
2022/10/08 06:34:08;;;;;;;9.07;5.25;;;;;;;16.32;82.22;95968.63;4988447;28;20195;-80
2022/10/08 06:36:36;;;;;;;5.72;5.22;;;;;;;16.52;79.98;95964.16;4993453;28;20599;-80
2022/10/08 06:39:06;;;;;;;5.95;4.93;;;;;;;16.72;79.73;95958.94;4986907;28;20226;-80
2022/10/08 06:41:34;;;;;;;6.45;4.85;;;;;;;16.59;79.72;95970.13;4984445;28;20211;-80
2022/10/08 06:44:01;;;;;;;5.72;4.70;;;;;;;16.53;79.99;95968.38;4986589;28;20282;-80
2022/10/08 06:46:29;;;;;;;7.03;4.65;;;;;;;16.51;80.33;95972.97;4984376;28;20192;-80
2022/10/08 06:48:56;;;;;;;5.22;4.55;;;;;;;16.69;79.93;95972.34;4986054;28;20282;-81
2022/10/08 06:51:23;;;;;;;5.82;4.35;;;;;;;16.85;79.45;95977.09;4984315;28;20208;-80
2022/10/08 06:53:52;;;;;;;6.55;4.30;;;;;;;16.83;78.57;95977.31;4989377;28;20495;-80
2022/10/08 06:56:19;;;;;;;9.00;4.38;;;;;;;17.03;77.98;95976.44;4989457;28;20234;-80
2022/10/08 06:58:47;;;;;;;5.93;4.95;;;;;;;17.12;77.34;95981.19;4986371;28;20226;-80
2022/10/08 07:01:15;;;;;;;5.80;4.38;;;;;;;17.05;77.80;95983.03;4991639;28;20199;-80
2022/10/08 07:03:42;;;;;;;7.63;4.97;;;;;;;17.02;78.09;95987.84;4993862;28;20211;-81
2022/10/08 07:06:11;;;;;;;6.05;4.40;;;;;;;16.97;78.75;95990.25;4993586;28;20199;-80
2022/10/08 07:08:38;;;;;;;7.13;4.97;;;;;;;16.85;79.33;95990.91;4994714;28;20219;-80
2022/10/08 07:11:05;;;;;;;6.05;4.55;;;;;;;16.89;79.80;95996.50;4992835;28;20195;-80
2022/10/08 07:13:31;;;;;;;8.80;4.45;;;;;;;16.91;79.94;95999.69;4994532;28;20599;-81
2022/10/08 07:16:03;;;;;;;6.82;4.40;;;;;;;16.93;80.21;96000.28;4993573;28;20223;-80
2022/10/08 07:18:29;;;;;;;5.82;4.05;;;;;;;16.93;80.31;96002.88;4993785;28;20268;-80
2022/10/08 07:20:56;;;;;;;5.45;4.90;;;;;;;16.89;80.61;96010.31;4993444;28;20215;-80
2022/10/08 07:23:22;;;;;;;5.88;4.25;;;;;;;16.99;80.62;96009.84;4994376;28;20211;-80
2022/10/08 07:25:55;;;;;;;4.40;4.10;;;;;;;17.29;79.27;96017.94;4994523;28;20823;-79
2022/10/08 07:28:21;;;;;;;5.45;4.63;;;;;;;17.75;77.43;96012.50;4993827;28;20235;-79
2022/10/08 07:30:48;;;;;;;4.93;4.43;;;;;;;17.76;76.44;96018.50;4993668;28;20632;-80
2022/10/08 07:33:16;;;;;;;5.07;4.18;;;;;;;17.87;76.65;96023.84;4994456;28;20212;-79
2022/10/08 07:35:42;;;;;;;4.72;3.95;;;;;;;17.80;76.66;96024.91;4994462;28;20717;-79
2022/10/08 07:38:09;;;;;;;4.60;4.13;;;;;;;17.68;77.25;96019.56;4994624;28;20231;-80
2022/10/08 07:40:35;;;;;;;6.32;4.05;;;;;;;17.59;77.91;96020.78;4994330;28;20200;-81
2022/10/08 07:43:02;;;;;;;6.82;4.20;;;;;;;17.57;78.38;96018.38;4993841;28;20199;-80
2022/10/08 07:45:29;;;;;;;7.90;4.15;;;;;;;17.51;78.67;96021.81;4993789;28;20254;-80
2022/10/08 07:47:56;;;;;;;5.63;4.05;;;;;;;17.47;79.41;96020.66;4993970;28;20230;-80
2022/10/08 07:50:24;;;;;;;4.53;3.85;;;;;;;17.47;79.65;96027.69;4992868;28;20214;-80
2022/10/08 07:52:50;;;;;;;5.00;4.38;;;;;;;17.39;80.24;96022.69;4994230;28;20210;-80
2022/10/08 07:55:17;;;;;;;4.85;4.13;;;;;;;17.27;80.78;96028.56;4997936;28;20247;-80
2022/10/08 07:57:43;;;;;;;10.30;7.45;;;;;;;17.26;81.20;96034.78;4997669;28;20230;-80
2022/10/08 08:00:11;;;;;;;8.52;7.72;;;;;;;17.36;80.90;96034.31;4996194;28;20214;-80
2022/10/08 08:02:37;;;;;;;5.22;4.72;;;;;;;17.41;80.46;96025.88;4997006;28;20200;-80
2022/10/08 08:05:04;;;;;;;5.03;4.53;;;;;;;17.40;80.18;96030.31;4997019;28;20206;-80
2022/10/08 08:07:32;;;;;;;5.25;4.57;;;;;;;17.49;80.21;96026.47;4997045;28;20204;-80
2022/10/08 08:09:58;;;;;;;8.23;4.88;;;;;;;17.61;80.21;96031.78;4997829;28;20691;-80
2022/10/08 08:12:25;;;;;;;4.45;4.05;;;;;;;17.67;79.52;96028.41;4997445;28;20214;-80
2022/10/08 08:14:51;;;;;;;4.78;4.38;;;;;;;17.61;80.15;96031.78;4997093;28;20283;-80
2022/10/08 08:17:18;;;;;;;4.60;4.20;;;;;;;17.65;80.12;96040.81;4997092;28;20207;-80
2022/10/08 08:19:44;;;;;;;5.78;4.60;;;;;;;17.68;80.08;96032.59;5000324;28;20235;-81
2022/10/08 08:22:11;;;;;;;5.10;4.60;;;;;;;17.75;80.09;96035.94;4997695;28;20231;-80
2022/10/08 08:24:39;;;;;;;5.15;4.53;;;;;;;17.77;79.99;96041.75;4996517;28;20207;-81
2022/10/08 08:27:05;;;;;;;8.77;4.55;;;;;;;17.69;80.64;96039.41;4996674;28;20231;-80
2022/10/08 08:29:31;;;;;;;5.25;4.82;;;;;;;17.61;80.79;96037.00;4996883;28;20227;-81
2022/10/08 08:31:58;;;;;;;14.10;8.68;;;;;;;17.65;80.97;96040.03;4997697;28;20570;-81
2022/10/08 08:34:25;;;;;;;5.13;4.63;;;;;;;17.58;81.52;96040.81;4996338;28;20210;-80
2022/10/08 08:36:53;;;;;;;5.50;5.00;;;;;;;17.65;81.39;96029.59;4996588;28;20223;-80
2022/10/08 08:39:22;;;;;;;4.95;4.53;;;;;;;17.64;81.33;96034.00;4996387;28;20294;-80
2022/10/08 08:42:02;;;;;;;6.18;4.50;;;;;;;17.61;81.70;96035.19;4997158;28;20202;-82
2022/10/08 08:44:32;;;;;;;5.95;4.95;;;;;;;17.64;81.44;96028.81;4997779;28;20210;-81
2022/10/08 08:47:04;;;;;;;5.50;4.65;;;;;;;17.66;81.91;96036.41;4998053;28;20568;-80
2022/10/08 08:49:38;;;;;;;5.20;4.68;;;;;;;17.69;82.17;96036.00;4996951;28;20235;-80
2022/10/08 08:52:06;;;;;;;6.43;5.18;;;;;;;17.76;81.73;96045.34;4984541;28;20204;-80
2022/10/08 08:54:33;;;;;;;5.68;4.72;;;;;;;17.78;81.83;96040.75;4996678;28;20455;-80
2022/10/08 08:57:17;;;;;;;5.85;5.13;;;;;;;17.89;81.65;96037.47;4995653;28;21037;-80
2022/10/08 08:59:46;;;;;;;7.22;4.63;;;;;;;18.06;80.76;96042.97;4996923;28;20235;-79
2022/10/08 09:02:22;;;;;;;7.18;4.50;;;;;;;18.20;79.64;96043.66;4995987;28;20192;-80
2022/10/08 09:04:53;;;;;;;5.43;4.55;;;;;;;18.37;79.08;96044.72;4996124;28;20203;-82
2022/10/08 09:07:24;;;;;;;7.88;4.80;;;;;;;18.49;78.35;96042.19;4996727;28;20596;-80
2022/10/08 09:09:52;;;;;;;5.07;4.55;;;;;;;18.53;77.43;96035.53;4996338;28;20260;-80
2022/10/08 09:12:24;;;;;;;5.00;4.50;;;;;;;18.53;77.14;96035.53;4996498;28;20211;-80
2022/10/08 09:14:54;;;;;;;5.97;4.32;;;;;;;18.67;77.33;96039.66;4995524;28;20210;-80
2022/10/08 09:17:27;;;;;;;5.90;4.53;;;;;;;18.70;76.49;96034.00;4996491;28;20613;-81
2022/10/08 09:19:54;;;;;;;10.10;4.78;;;;;;;18.67;76.91;96039.66;4996425;28;20210;-81
2022/10/08 09:22:23;;;;;;;7.97;4.60;;;;;;;18.57;77.24;96041.94;4996188;28;20203;-80
2022/10/08 09:24:52;;;;;;;4.97;4.47;;;;;;;18.56;77.37;96040.34;4995843;28;20203;-80
2022/10/08 09:27:20;;;;;;;5.97;4.43;;;;;;;18.52;77.51;96041.78;4996353;28;20288;-80
2022/10/08 09:29:47;;;;;;;8.13;4.63;;;;;;;18.49;78.24;96040.38;4995828;28;20227;-80
2022/10/08 09:32:16;;;;;;;10.88;4.45;;;;;;;18.51;76.22;96048.78;4995632;28;20200;-80
2022/10/08 09:34:44;;;;;;;7.47;4.63;;;;;;;18.43;74.95;96043.88;4995899;28;20200;-80
2022/10/08 09:37:20;;;;;;;6.82;4.13;;;;;;;18.41;74.97;96042.47;4995057;28;20219;-80
2022/10/08 09:40:16;;;;;;;5.50;4.25;;;;;;;18.44;75.05;96049.88;4995097;28;20223;-80
2022/10/08 09:42:44;;;;;;;5.03;4.05;;;;;;;18.51;75.32;96046.19;4995713;28;20211;-80
2022/10/08 09:45:32;;;;;;;5.97;4.50;;;;;;;18.60;75.41;96044.16;4994220;28;20199;-79
2022/10/08 09:48:15;;;;;;;7.43;4.38;;;;;;;18.58;73.91;96040.91;4994847;28;20286;-81
2022/10/08 09:50:48;;;;;;;6.93;4.43;;;;;;;18.61;74.46;96041.31;4994653;28;20203;-80
2022/10/08 09:53:16;;;;;;;7.43;4.10;;;;;;;18.65;75.13;96046.13;4995067;28;20215;-80
2022/10/08 09:55:49;;;;;;;7.10;4.05;;;;;;;18.75;74.11;96038.56;4994122;28;20224;-80
2022/10/08 09:58:19;;;;;;;5.55;4.07;;;;;;;18.83;73.47;96039.09;4994862;28;20298;-80
2022/10/08 10:00:56;;;;;;;4.78;4.20;;;;;;;18.84;73.57;96039.91;4994129;28;20226;-80
2022/10/08 10:03:24;;;;;;;8.93;4.50;;;;;;;18.88;73.36;96041.03;4993987;28;20199;-81
2022/10/08 10:05:52;;;;;;;6.75;4.15;;;;;;;18.85;73.33;96044.09;4994722;28;20671;-80
2022/10/08 10:08:53;;;;;;;8.77;5.97;;;;;;;18.89;73.07;96045.25;4995425;28;20222;-80
2022/10/08 10:11:26;;;;;;;15.73;10.60;;;;;;;18.85;73.76;96042.31;4995846;28;20207;-80
2022/10/08 10:13:57;;;;;;;7.93;5.93;;;;;;;18.81;73.98;96042.94;4997327;28;20204;-80
2022/10/08 10:16:27;;;;;;;6.38;4.40;;;;;;;18.77;73.51;96047.00;4996601;28;20234;-81
2022/10/08 10:18:59;;;;;;;9.90;4.03;;;;;;;18.74;73.35;96050.03;4997865;28;20219;-81
2022/10/08 10:21:35;;;;;;;10.38;4.32;;;;;;;18.71;73.75;96048.66;4996157;28;20207;-80
2022/10/08 10:24:26;;;;;;;8.10;4.45;;;;;;;18.68;74.08;96053.47;4996455;28;20199;-81
2022/10/08 10:26:56;;;;;;;6.38;4.72;;;;;;;18.60;74.27;96052.78;4996200;28;20203;-79
2022/10/08 10:29:32;;;;;;;8.13;4.57;;;;;;;18.58;74.46;96053.97;4995865;28;20734;-80
2022/10/08 10:32:03;;;;;;;7.88;4.70;;;;;;;18.52;75.12;96052.19;4995503;28;20202;-80
2022/10/08 10:34:35;;;;;;;7.90;4.60;;;;;;;18.54;75.34;96058.81;4996314;28;20207;-81
2022/10/08 10:37:09;;;;;;;8.15;4.57;;;;;;;18.58;74.94;96049.53;4995991;28;20227;-81
2022/10/08 10:39:43;;;;;;;6.18;4.70;;;;;;;18.56;74.86;96046.34;4994945;28;20216;-80
2022/10/08 10:42:17;;;;;;;8.88;4.90;;;;;;;18.48;74.65;96046.59;4995153;28;20199;-80
2022/10/08 10:44:52;;;;;;;5.70;5.05;;;;;;;18.47;74.59;96044.25;4995493;28;20199;-80
2022/10/08 10:47:22;;;;;;;5.43;4.28;;;;;;;18.47;74.82;96039.03;4994851;28;20253;-80
2022/10/08 10:49:50;;;;;;;9.20;4.47;;;;;;;18.45;74.54;96046.25;4993984;28;20242;-80
2022/10/08 10:52:40;;;;;;;33.10;28.20;;;;;;;18.42;75.47;96038.88;4993872;28;20627;-80
2022/10/08 10:55:31;;;;;;;11.57;8.32;;;;;;;18.38;75.48;96030.66;4993496;28;20212;-80
2022/10/08 10:58:09;;;;;;;14.93;5.85;;;;;;;18.36;75.50;96037.09;4991102;28;20238;-79
2022/10/08 11:00:47;;;;;;;8.60;5.15;;;;;;;18.29;76.46;96034.53;4993661;28;20311;-80
2022/10/08 11:03:22;;;;;;;9.45;4.90;;;;;;;18.31;76.36;96032.53;4993626;28;20195;-81
2022/10/08 11:05:54;;;;;;;8.23;5.38;;;;;;;18.34;76.51;96032.09;4993863;28;20214;-80
2022/10/08 11:08:30;;;;;;;8.55;5.05;;;;;;;18.34;77.03;96026.09;4994213;28;20246;-80
2022/10/08 11:11:10;;;;;;;8.32;5.05;;;;;;;18.27;76.33;96020.94;4993967;28;20211;-80
2022/10/08 11:13:47;;;;;;;7.40;4.80;;;;;;;18.28;76.32;96023.31;4995245;28;20199;-80
2022/10/08 11:16:30;;;;;;;9.50;7.07;;;;;;;18.26;76.70;96022.75;4995143;28;20226;-81
2022/10/08 11:18:58;;;;;;;29.75;21.05;;;;;;;18.22;79.75;96031.22;4994751;28;20230;-81
2022/10/08 11:21:38;;;;;;;8.13;6.57;;;;;;;18.16;78.07;96032.84;4994258;28;20218;-81
2022/10/08 11:24:23;;;;;;;10.25;7.07;;;;;;;18.14;80.72;96027.06;4995044;28;20236;-81
2022/10/08 11:26:55;;;;;;;15.38;8.38;;;;;;;18.12;80.16;96029.06;4997711;28;20203;-81
2022/10/08 11:29:32;;;;;;;9.82;6.70;;;;;;;18.18;79.83;96030.03;5000448;28;20616;-81
2022/10/08 11:32:01;;;;;;;6.60;5.90;;;;;;;18.20;80.35;96028.00;4998115;28;20210;-80
2022/10/08 11:34:30;;;;;;;8.98;5.88;;;;;;;18.18;81.05;96036.03;4998102;28;20199;-81
2022/10/08 11:37:07;;;;;;;7.30;6.18;;;;;;;18.13;80.44;96017.63;4999035;28;20230;-81
2022/10/08 11:39:44;;;;;;;9.27;5.80;;;;;;;18.17;80.07;96018.00;4998593;28;20211;-81
2022/10/08 11:42:19;;;;;;;9.02;5.97;;;;;;;18.16;80.59;96016.41;4997459;28;20207;-81